createdAt,value
2019-03-24T00:00:00.000Z,12.4
2019-03-24T00:05:00.000Z,12.3
2019-03-24T00:10:00.000Z,12.3
2019-03-24T00:15:00.000Z,12.2
2019-03-24T00:20:00.000Z,12.2
2019-03-24T00:25:00.000Z,12.1
2019-03-24T00:30:00.000Z,12.2
2019-03-24T00:35:00.000Z,12.2
2019-03-24T00:40:00.000Z,12.2
2019-03-24T00:45:00.000Z,12.3
2019-03-24T00:50:00.000Z,12.3
2019-03-24T00:55:00.000Z,12.2
2019-03-24T01:00:00.000Z,12.2
2019-03-24T01:05:00.000Z,12.2
2019-03-24T01:10:00.000Z,12.2
2019-03-24T01:15:00.000Z,12.1
2019-03-24T01:20:00.000Z,12.1
2019-03-24T01:25:00.000Z,12.1
2019-03-24T01:30:00.000Z,12.1
2019-03-24T01:35:00.000Z,12.1
2019-03-24T01:40:00.000Z,12.0
2019-03-24T01:45:00.000Z,12.0
2019-03-24T01:50:00.000Z,12.0
2019-03-24T01:55:00.000Z,12.0
2019-03-24T02:01:00.000Z,12.1
2019-03-24T02:06:00.000Z,12.1
2019-03-24T02:11:00.000Z,12.1
2019-03-24T02:16:00.000Z,12.1
2019-03-24T02:21:00.000Z,12.1
2019-03-24T02:26:00.000Z,12.1
2019-03-24T02:31:00.000Z,12.1
2019-03-24T02:36:00.000Z,12.1
2019-03-24T02:41:00.000Z,12.0
2019-03-24T02:46:00.000Z,12.0
2019-03-24T02:51:00.000Z,12.0
2019-03-24T02:56:00.000Z,12.0
2019-03-24T03:01:00.000Z,12.0
2019-03-24T03:06:00.000Z,12.0
2019-03-24T03:11:00.000Z,11.9
2019-03-24T03:16:00.000Z,11.9
2019-03-24T03:21:00.000Z,11.9
2019-03-24T03:26:00.000Z,11.8
2019-03-24T03:31:00.000Z,11.8
2019-03-24T03:36:00.000Z,11.7
2019-03-24T03:41:00.000Z,11.7
2019-03-24T03:46:00.000Z,11.6
2019-03-24T03:51:00.000Z,11.6
2019-03-24T03:56:00.000Z,11.6
2019-03-24T04:01:00.000Z,11.5
2019-03-24T04:06:00.000Z,11.4
2019-03-24T04:11:00.000Z,11.3
2019-03-24T04:16:00.000Z,11.2
2019-03-24T04:22:00.000Z,11.1
2019-03-24T04:27:00.000Z,11.1
2019-03-24T04:32:00.000Z,11.2
2019-03-24T04:37:00.000Z,11.3
2019-03-24T04:42:00.000Z,11.2
2019-03-24T04:47:00.000Z,11.1
2019-03-24T04:52:00.000Z,11.1
2019-03-24T04:57:00.000Z,11.0
2019-03-24T05:02:00.000Z,10.9
2019-03-24T05:07:00.000Z,10.9
2019-03-24T05:12:00.000Z,10.8
2019-03-24T05:17:00.000Z,10.7
2019-03-24T05:22:00.000Z,10.7
2019-03-24T05:27:00.000Z,10.7
2019-03-24T05:32:00.000Z,10.6
2019-03-24T05:37:00.000Z,10.7
2019-03-24T05:42:00.000Z,10.7
2019-03-24T05:47:00.000Z,10.7
2019-03-24T05:52:00.000Z,10.7
2019-03-24T05:57:00.000Z,10.8
2019-03-24T06:02:00.000Z,10.9
2019-03-24T06:07:00.000Z,10.9
2019-03-24T06:12:00.000Z,11.0
2019-03-24T06:17:00.000Z,11.0
2019-03-24T06:22:00.000Z,11.0
2019-03-24T06:27:00.000Z,11.2
2019-03-24T06:32:00.000Z,11.3
2019-03-24T06:37:00.000Z,11.4
2019-03-24T06:42:00.000Z,11.6
2019-03-24T06:47:00.000Z,11.7
2019-03-24T06:52:00.000Z,11.8
2019-03-24T06:57:00.000Z,11.9
2019-03-24T07:03:00.000Z,12.1
2019-03-24T07:08:00.000Z,12.1
2019-03-24T07:13:00.000Z,12.3
2019-03-24T07:18:00.000Z,12.4
2019-03-24T07:23:00.000Z,12.4
2019-03-24T07:28:00.000Z,12.5
2019-03-24T07:33:00.000Z,12.5
2019-03-24T07:38:00.000Z,12.7
2019-03-24T07:43:00.000Z,12.8
2019-03-24T07:48:00.000Z,12.9
2019-03-24T07:53:00.000Z,13.0
2019-03-24T07:58:00.000Z,13.0
2019-03-24T08:03:00.000Z,13.1
2019-03-24T08:08:00.000Z,13.1
2019-03-24T08:13:00.000Z,13.2
2019-03-24T08:18:00.000Z,13.3
2019-03-24T08:23:00.000Z,13.5
2019-03-24T08:28:00.000Z,13.6
2019-03-24T08:33:00.000Z,14.2
2019-03-24T08:38:00.000Z,15.3
2019-03-24T08:43:00.000Z,16.4
2019-03-24T08:48:00.000Z,17.4
2019-03-24T08:53:00.000Z,18.5
2019-03-24T08:58:00.000Z,19.3
2019-03-24T09:03:00.000Z,20.0
2019-03-24T09:08:00.000Z,20.5
2019-03-24T09:13:00.000Z,21.0
2019-03-24T09:18:00.000Z,21.4
2019-03-24T09:23:00.000Z,21.7
2019-03-24T09:28:00.000Z,22.0
2019-03-24T09:33:00.000Z,22.4
2019-03-24T09:38:00.000Z,22.5
2019-03-24T09:43:00.000Z,22.8
2019-03-24T09:48:00.000Z,23.1
2019-03-24T09:54:00.000Z,23.1
2019-03-24T09:59:00.000Z,23.3
2019-03-24T10:04:00.000Z,23.4
2019-03-24T10:09:00.000Z,23.4
2019-03-24T10:14:00.000Z,23.7
2019-03-24T10:19:00.000Z,23.8
2019-03-24T10:24:00.000Z,23.8
2019-03-24T10:29:00.000Z,23.9
2019-03-24T10:34:00.000Z,23.6
2019-03-24T10:39:00.000Z,23.6
2019-03-24T10:44:00.000Z,23.6
2019-03-24T10:49:00.000Z,23.6
2019-03-24T10:54:00.000Z,23.6
2019-03-24T10:59:00.000Z,23.6
2019-03-24T11:04:00.000Z,23.5
2019-03-24T11:09:00.000Z,23.3
2019-03-24T11:14:00.000Z,23.2
2019-03-24T11:19:00.000Z,23.0
2019-03-24T11:24:00.000Z,22.9
2019-03-24T11:29:00.000Z,22.9
2019-03-24T11:34:00.000Z,22.8
2019-03-24T11:39:00.000Z,22.6
2019-03-24T11:44:00.000Z,22.2
2019-03-24T11:49:00.000Z,21.7
2019-03-24T11:54:00.000Z,21.2
2019-03-24T11:59:00.000Z,20.9
2019-03-24T12:04:00.000Z,20.8
2019-03-24T12:09:00.000Z,20.8
2019-03-24T12:14:00.000Z,20.8
2019-03-24T12:19:00.000Z,21.0
2019-03-24T12:24:00.000Z,21.1
2019-03-24T12:29:00.000Z,21.2
2019-03-24T12:34:00.000Z,21.3
2019-03-24T12:40:00.000Z,21.4
2019-03-24T12:45:00.000Z,21.3
2019-03-24T12:50:00.000Z,21.2
2019-03-24T12:55:00.000Z,21.2
2019-03-24T13:00:00.000Z,21.3
2019-03-24T13:05:00.000Z,21.5
2019-03-24T13:10:00.000Z,21.9
2019-03-24T13:15:00.000Z,22.0
2019-03-24T13:20:00.000Z,22.1
2019-03-24T13:25:00.000Z,22.1
2019-03-24T13:30:00.000Z,22.2
2019-03-24T13:35:00.000Z,22.4
2019-03-24T13:40:00.000Z,22.4
2019-03-24T13:45:00.000Z,22.5
2019-03-24T13:50:00.000Z,22.2
2019-03-24T13:55:00.000Z,22.0
2019-03-24T14:00:00.000Z,21.9
2019-03-24T14:05:00.000Z,22.0
2019-03-24T14:10:00.000Z,22.1
2019-03-24T14:15:00.000Z,22.2
2019-03-24T14:20:00.000Z,22.1
2019-03-24T14:25:00.000Z,22.0
2019-03-24T14:30:00.000Z,21.8
2019-03-24T14:35:00.000Z,21.6
2019-03-24T14:40:00.000Z,21.6
2019-03-24T14:45:00.000Z,21.3
2019-03-24T14:50:00.000Z,21.1
2019-03-24T14:55:00.000Z,20.8
2019-03-24T15:00:00.000Z,20.6
2019-03-24T15:05:00.000Z,20.6
2019-03-24T15:10:00.000Z,20.6
2019-03-24T15:15:00.000Z,20.4
2019-03-24T15:20:00.000Z,20.4
2019-03-24T15:26:00.000Z,20.2
2019-03-24T15:31:00.000Z,20.0
2019-03-24T15:36:00.000Z,19.8
2019-03-24T15:41:00.000Z,19.7
2019-03-24T15:46:00.000Z,19.5
2019-03-24T15:51:00.000Z,19.4
2019-03-24T15:56:00.000Z,19.3
2019-03-24T16:01:00.000Z,19.2
2019-03-24T16:06:00.000Z,19.0
2019-03-24T16:11:00.000Z,18.9
2019-03-24T16:16:00.000Z,18.7
2019-03-24T16:21:00.000Z,18.6
2019-03-24T16:26:00.000Z,18.5
2019-03-24T16:31:00.000Z,18.4
2019-03-24T16:36:00.000Z,18.3
2019-03-24T16:41:00.000Z,18.2
2019-03-24T16:46:00.000Z,18.0
2019-03-24T16:51:00.000Z,17.9
2019-03-24T16:56:00.000Z,17.8
2019-03-24T17:01:00.000Z,17.7
2019-03-24T17:06:00.000Z,17.6
2019-03-24T17:11:00.000Z,17.5
2019-03-24T17:16:00.000Z,17.3
2019-03-24T17:21:00.000Z,17.2
2019-03-24T17:26:00.000Z,17.2
2019-03-24T17:31:00.000Z,17.1
2019-03-24T17:36:00.000Z,17.0
2019-03-24T17:41:00.000Z,17.0
2019-03-24T17:46:00.000Z,16.9
2019-03-24T17:51:00.000Z,16.8
2019-03-24T17:57:00.000Z,16.7
2019-03-24T18:02:00.000Z,16.6
2019-03-24T18:07:00.000Z,16.5
2019-03-24T18:12:00.000Z,16.5
2019-03-24T18:17:00.000Z,16.4
2019-03-24T18:22:00.000Z,16.3
2019-03-24T18:27:00.000Z,16.2
2019-03-24T18:32:00.000Z,16.1
2019-03-24T18:37:00.000Z,16.1
2019-03-24T18:42:00.000Z,16.0
2019-03-24T18:47:00.000Z,15.9
2019-03-24T18:52:00.000Z,15.9
2019-03-24T18:57:00.000Z,15.8
2019-03-24T19:02:00.000Z,15.7
2019-03-24T19:07:00.000Z,15.7
2019-03-24T19:12:00.000Z,15.6
2019-03-24T19:17:00.000Z,15.6
2019-03-24T19:22:00.000Z,15.6
2019-03-24T19:27:00.000Z,15.5
2019-03-24T19:32:00.000Z,15.4
2019-03-24T19:37:00.000Z,15.3
2019-03-24T19:42:00.000Z,15.2
2019-03-24T19:47:00.000Z,15.1
2019-03-24T19:52:00.000Z,15.0
2019-03-24T19:57:00.000Z,14.9
2019-03-24T20:02:00.000Z,14.8
2019-03-24T20:07:00.000Z,14.7
2019-03-24T20:12:00.000Z,14.6
2019-03-24T20:17:00.000Z,14.5
2019-03-24T20:22:00.000Z,14.3
2019-03-24T20:27:00.000Z,14.2
2019-03-24T20:32:00.000Z,14.2
2019-03-24T20:37:00.000Z,14.1
2019-03-24T20:42:00.000Z,14.0
2019-03-24T20:48:00.000Z,13.9
2019-03-24T20:53:00.000Z,13.8
2019-03-24T20:58:00.000Z,13.8
2019-03-24T21:03:00.000Z,13.7
2019-03-24T21:08:00.000Z,13.7
2019-03-24T21:13:00.000Z,13.6
2019-03-24T21:18:00.000Z,13.6
2019-03-24T21:23:00.000Z,13.5
2019-03-24T21:28:00.000Z,13.4
2019-03-24T21:33:00.000Z,13.3
2019-03-24T21:38:00.000Z,13.3
2019-03-24T21:43:00.000Z,13.3
2019-03-24T21:48:00.000Z,13.2
2019-03-24T21:53:00.000Z,13.2
2019-03-24T21:58:00.000Z,13.2
2019-03-24T22:03:00.000Z,13.1
2019-03-24T22:08:00.000Z,13.1
2019-03-24T22:13:00.000Z,13.1
2019-03-24T22:18:00.000Z,13.1
2019-03-24T22:23:00.000Z,13.0
2019-03-24T22:28:00.000Z,13.0
2019-03-24T22:33:00.000Z,12.9
2019-03-24T22:38:00.000Z,12.9
2019-03-24T22:43:00.000Z,12.8
2019-03-24T22:48:00.000Z,12.7
2019-03-24T22:53:00.000Z,12.6
2019-03-24T22:59:00.000Z,12.5
2019-03-24T23:04:00.000Z,12.4
2019-03-24T23:09:00.000Z,12.4
2019-03-24T23:14:00.000Z,12.3
2019-03-24T23:19:00.000Z,12.2
2019-03-24T23:24:00.000Z,12.1
2019-03-24T23:29:00.000Z,12.0
2019-03-24T23:34:00.000Z,12.0
2019-03-24T23:39:00.000Z,11.9
2019-03-24T23:44:00.000Z,11.9
2019-03-24T23:49:00.000Z,11.9
2019-03-24T23:54:00.000Z,11.9
2019-03-24T23:59:00.000Z,11.9
